Time;durP1;ratioP1;P1;durP2;ratioP2;P2;SDS_P1;SDS_P2;PMS_P1;PMS_P2;Temp;Humidity;BMP_temperature;BMP_pressure;BME280_temperature;BME280_humidity;BME280_pressure;Samples;Min_cycle;Max_cycle;Signal;HPM_P1;HPM_P2
2021/05/29 00:02:14;;;;;;;0.80;0.80;;;;;;;;;;5037118;28;20213;-81
2021/05/29 00:04:43;;;;;;;0.82;0.82;;;;;;;;;;5037108;28;20199;-80
2021/05/29 00:07:10;;;;;;;2.38;1.20;;;;;;;;;;5037037;28;20202;-81
2021/05/29 00:09:38;;;;;;;1.23;1.13;;;;;;;;;;5037117;28;20202;-81
2021/05/29 00:12:09;;;;;;;1.40;1.30;;;;;;;;;;5037181;28;20202;-81
2021/05/29 00:14:37;;;;;;;1.20;1.17;;;;;;;;;;5036943;28;20202;-81
2021/05/29 00:17:05;;;;;;;1.30;1.20;;;;;;;;;;5036163;28;20238;-81
2021/05/29 00:19:32;;;;;;;1.20;1.10;;;;;;;;;;5036471;28;20222;-81
2021/05/29 00:22:00;;;;;;;0.85;0.85;;;;;;;;;;5036342;28;20591;-81
2021/05/29 00:24:26;;;;;;;1.00;1.00;;;;;;;;;;5036866;28;20649;-81
2021/05/29 00:26:53;;;;;;;1.00;0.98;;;;;;;;;;5036722;28;20226;-81
2021/05/29 00:29:20;;;;;;;1.17;1.17;;;;;;;;;;5036847;28;20202;-81
2021/05/29 00:31:47;;;;;;;0.90;0.90;;;;;;;;;;5036265;28;20198;-81
2021/05/29 00:34:14;;;;;;;1.23;1.20;;;;;;;;;;5037053;28;20668;-81
2021/05/29 00:36:41;;;;;;;1.00;1.00;;;;;;;;;;5036181;28;20218;-81
2021/05/29 00:39:08;;;;;;;3.88;1.10;;;;;;;;;;5036765;28;20226;-81
2021/05/29 00:41:35;;;;;;;3.58;1.45;;;;;;;;;;5036278;28;20209;-81
2021/05/29 00:44:02;;;;;;;1.15;1.05;;;;;;;;;;5036546;28;20589;-81
2021/05/29 00:46:29;;;;;;;0.90;0.90;;;;;;;;;;5036570;28;20222;-81
2021/05/29 00:48:56;;;;;;;0.90;0.90;;;;;;;;;;5035798;28;20209;-81
2021/05/29 00:51:23;;;;;;;1.20;1.10;;;;;;;;;;5036094;28;20215;-81
2021/05/29 00:53:52;;;;;;;2.13;1.30;;;;;;;;;;5035995;28;20198;-81
2021/05/29 00:56:20;;;;;;;1.05;1.02;;;;;;;;;;5036141;28;20225;-81
2021/05/29 00:58:47;;;;;;;1.40;1.30;;;;;;;;;;5036278;28;20205;-81
2021/05/29 01:01:14;;;;;;;1.10;1.10;;;;;;;;;;5035712;28;20209;-81
2021/05/29 01:03:41;;;;;;;1.13;1.10;;;;;;;;;;5035993;28;20202;-81
2021/05/29 01:06:08;;;;;;;2.47;1.48;;;;;;;;;;5036039;28;20592;-81
2021/05/29 01:08:35;;;;;;;1.05;1.02;;;;;;;;;;5036203;28;20198;-81
2021/05/29 01:11:01;;;;;;;1.08;1.05;;;;;;;;;;5036132;28;20587;-81
2021/05/29 01:13:31;;;;;;;1.50;1.30;;;;;;;;;;5036264;28;20203;-80
2021/05/29 01:16:03;;;;;;;1.02;1.02;;;;;;;;;;5036109;28;20237;-80
2021/05/29 01:18:30;;;;;;;1.17;1.08;;;;;;;;;;5036223;28;20217;-81
2021/05/29 01:21:00;;;;;;;1.00;1.00;;;;;;;;;;5036195;28;20233;-81
2021/05/29 01:23:28;;;;;;;1.20;1.10;;;;;;;;;;5035936;28;20203;-81
2021/05/29 01:25:55;;;;;;;1.33;1.25;;;;;;;;;;5035771;28;20215;-81
2021/05/29 01:28:27;;;;;;;1.05;1.05;;;;;;;;;;5036347;28;20213;-81
2021/05/29 01:30:58;;;;;;;0.95;0.95;;;;;;;;;;5036111;28;20202;-81
2021/05/29 01:33:28;;;;;;;1.20;1.10;;;;;;;;;;5035887;28;20740;-81
2021/05/29 01:36:00;;;;;;;1.45;1.35;;;;;;;;;;5035908;28;20234;-81
2021/05/29 01:38:28;;;;;;;1.17;1.17;;;;;;;;;;5035919;28;20601;-80
2021/05/29 01:41:00;;;;;;;1.30;1.23;;;;;;;;;;5035331;28;20226;-80
2021/05/29 01:43:27;;;;;;;1.35;1.20;;;;;;;;;;5035431;28;20206;-79
2021/05/29 01:45:54;;;;;;;2.10;1.30;;;;;;;;;;5035291;28;20222;-79
2021/05/29 01:48:21;;;;;;;1.08;1.08;;;;;;;;;;5035340;28;20217;-79
2021/05/29 01:50:49;;;;;;;1.65;1.55;;;;;;;;;;5035183;28;20198;-79
2021/05/29 01:53:18;;;;;;;1.08;1.00;;;;;;;;;;5035419;28;20696;-79
2021/05/29 01:55:47;;;;;;;1.00;1.00;;;;;;;;;;5035614;28;20226;-79
2021/05/29 01:58:15;;;;;;;1.10;1.10;;;;;;;;;;5035261;28;20202;-79
2021/05/29 02:00:42;;;;;;;1.45;1.35;;;;;;;;;;5035724;28;20286;-80
2021/05/29 02:03:09;;;;;;;1.23;1.20;;;;;;;;;;5035064;28;20202;-79
2021/05/29 02:05:37;;;;;;;1.38;1.25;;;;;;;;;;5034270;28;20279;-80
2021/05/29 02:08:06;;;;;;;3.95;1.83;;;;;;;;;;5034570;28;20252;-79
2021/05/29 02:10:36;;;;;;;1.50;1.40;;;;;;;;;;5035032;28;20582;-80
2021/05/29 02:13:08;;;;;;;1.77;1.42;;;;;;;;;;5035367;28;20603;-80
2021/05/29 02:15:41;;;;;;;1.48;1.38;;;;;;;;;;5035101;28;20758;-80
2021/05/29 02:18:10;;;;;;;1.50;1.40;;;;;;;;;;5035491;28;20202;-79
2021/05/29 02:20:43;;;;;;;1.92;1.20;;;;;;;;;;5035503;28;20218;-80
2021/05/29 02:23:12;;;;;;;2.15;1.52;;;;;;;;;;5035569;28;20213;-79
2021/05/29 02:25:39;;;;;;;1.70;1.60;;;;;;;;;;5035955;28;20222;-79
2021/05/29 02:28:07;;;;;;;1.30;1.20;;;;;;;;;;5035049;28;20578;-80
2021/05/29 02:30:35;;;;;;;1.45;1.35;;;;;;;;;;5035448;28;20630;-79
2021/05/29 02:33:04;;;;;;;1.50;1.40;;;;;;;;;;5035107;28;20202;-79
2021/05/29 02:35:31;;;;;;;1.45;1.35;;;;;;;;;;5034998;28;20624;-79
2021/05/29 02:37:58;;;;;;;1.90;1.33;;;;;;;;;;5034901;28;20252;-79
2021/05/29 02:40:25;;;;;;;1.77;1.67;;;;;;;;;;5034643;28;20218;-80
2021/05/29 02:42:52;;;;;;;1.58;1.48;;;;;;;;;;5034536;28;20206;-80
2021/05/29 02:45:20;;;;;;;1.92;1.70;;;;;;;;;;5034659;28;20688;-80
2021/05/29 02:47:46;;;;;;;1.38;1.27;;;;;;;;;;5034054;28;20238;-80
2021/05/29 02:50:14;;;;;;;1.85;1.75;;;;;;;;;;5034767;28;20194;-80
2021/05/29 02:52:41;;;;;;;2.15;1.65;;;;;;;;;;5034822;28;20582;-80
2021/05/29 02:55:11;;;;;;;2.75;1.92;;;;;;;;;;5034724;28;20219;-80
2021/05/29 02:57:39;;;;;;;1.67;1.58;;;;;;;;;;5034210;28;20202;-80
2021/05/29 03:00:09;;;;;;;1.52;1.42;;;;;;;;;;5034567;28;20696;-80
2021/05/29 03:02:37;;;;;;;1.60;1.48;;;;;;;;;;5038658;28;20580;-80
2021/05/29 03:05:04;;;;;;;2.55;1.65;;;;;;;;;;5038931;28;20708;-81
2021/05/29 03:07:31;;;;;;;1.63;1.52;;;;;;;;;;5038829;28;20209;-81
2021/05/29 03:09:58;;;;;;;2.47;1.50;;;;;;;;;;5038622;28;20847;-80
2021/05/29 03:12:26;;;;;;;2.28;1.80;;;;;;;;;;5038975;28;20268;-80
2021/05/29 03:14:53;;;;;;;1.95;1.75;;;;;;;;;;5038509;28;20574;-80
2021/05/29 03:17:20;;;;;;;1.90;1.80;;;;;;;;;;5038515;28;20206;-80
2021/05/29 03:19:47;;;;;;;1.95;1.85;;;;;;;;;;5037974;28;20206;-80
2021/05/29 03:22:14;;;;;;;2.25;1.85;;;;;;;;;;5038388;28;20677;-80
2021/05/29 03:24:41;;;;;;;2.20;1.98;;;;;;;;;;5038541;28;20699;-80
2021/05/29 03:27:08;;;;;;;2.08;1.88;;;;;;;;;;5038499;28;20210;-81
2021/05/29 06:35:40;;;;;;;4.80;3.97;;;;;;;;;;1930379;26;21809;-80
2021/05/29 06:38:07;;;;;;;5.15;4.65;;;;;;;;;;5033608;28;20242;-81
2021/05/29 06:40:35;;;;;;;4.22;3.88;;;;;;;;;;5034853;28;20226;-81
2021/05/29 06:43:02;;;;;;;5.20;4.70;;;;;;;;;;5035999;28;20202;-82
2021/05/29 06:45:30;;;;;;;5.45;4.60;;;;;;;;;;5033709;28;20233;-81
2021/05/29 06:47:58;;;;;;;5.18;3.80;;;;;;;;;;5035641;28;20244;-81
2021/05/29 06:50:25;;;;;;;5.28;4.18;;;;;;;;;;5035558;28;20202;-81
2021/05/29 06:53:05;;;;;;;4.18;3.88;;;;;;;;;;5034538;28;20280;-81
2021/05/29 07:01:18;;;;;;;5.10;4.70;;;;;;;;;;4954899;29;20197;-81
2021/05/29 07:03:45;;;;;;;4.35;3.58;;;;;;;;;;5016081;28;20249;-81
2021/05/29 07:06:12;;;;;;;4.95;4.28;;;;;;;;;;5034852;28;20656;-82
2021/05/29 07:08:40;;;;;;;4.28;3.97;;;;;;;;;;5035442;28;20672;-81
2021/05/29 07:11:07;;;;;;;4.35;3.95;;;;;;;;;;5031496;28;20655;-81
2021/05/29 07:13:34;;;;;;;3.97;3.67;;;;;;;;;;5035164;28;20194;-81
2021/05/29 07:16:02;;;;;;;4.68;4.28;;;;;;;;;;5036165;28;20202;-81
2021/05/29 07:18:31;;;;;;;6.07;4.70;;;;;;;;;;5035443;28;20206;-81
2021/05/29 07:21:00;;;;;;;7.93;5.65;;;;;;;;;;5036139;28;20202;-81
2021/05/29 07:23:27;;;;;;;7.65;5.30;;;;;;;;;;5035411;28;20205;-81
2021/05/29 07:25:55;;;;;;;5.35;4.85;;;;;;;;;;5035983;28;20206;-82
2021/05/29 07:28:22;;;;;;;5.90;5.40;;;;;;;;;;5035337;28;20583;-82
2021/05/29 07:30:50;;;;;;;6.43;5.80;;;;;;;;;;5034832;28;20292;-81
2021/05/29 07:33:17;;;;;;;5.93;5.43;;;;;;;;;;5035093;28;20254;-82
2021/05/29 07:35:46;;;;;;;7.05;5.80;;;;;;;;;;5035145;28;20206;-81
2021/05/29 07:38:13;;;;;;;6.32;5.20;;;;;;;;;;5035307;28;20207;-81
2021/05/29 07:40:40;;;;;;;6.20;5.60;;;;;;;;;;5034709;28;20730;-81
2021/05/29 07:43:08;;;;;;;5.88;5.32;;;;;;;;;;5034205;28;20222;-82
2021/05/29 07:45:35;;;;;;;8.90;6.13;;;;;;;;;;5034826;28;20249;-82
2021/05/29 07:48:01;;;;;;;5.63;5.13;;;;;;;;;;5037585;28;20206;-81
2021/05/29 07:50:28;;;;;;;5.65;4.95;;;;;;;;;;5039370;28;20563;-81
2021/05/29 07:52:55;;;;;;;7.13;5.50;;;;;;;;;;5044669;28;20224;-82
2021/05/29 07:55:23;;;;;;;5.47;4.97;;;;;;;;;;5057078;28;20312;-81
2021/05/29 07:57:49;;;;;;;8.35;6.95;;;;;;;;;;5059142;28;20186;-82
2021/05/29 08:00:23;;;;;;;5.60;5.10;;;;;;;;;;5057713;28;20197;-81
2021/05/29 08:02:50;;;;;;;8.07;5.80;;;;;;;;;;5047972;28;20194;-80
2021/05/29 08:05:19;;;;;;;8.50;5.45;;;;;;;;;;5038229;28;20226;-80
2021/05/29 08:07:46;;;;;;;6.88;6.15;;;;;;;;;;5038024;28;20257;-81
2021/05/29 08:10:14;;;;;;;7.03;6.38;;;;;;;;;;5037500;28;20230;-81
2021/05/29 08:12:41;;;;;;;7.05;6.20;;;;;;;;;;5035137;28;20244;-81
2021/05/29 08:15:09;;;;;;;7.47;6.63;;;;;;;;;;5036094;28;20264;-80
2021/05/29 08:17:37;;;;;;;9.43;7.05;;;;;;;;;;5036766;28;20201;-81
2021/05/29 08:20:06;;;;;;;9.93;7.85;;;;;;;;;;5036009;28;20198;-80
2021/05/29 08:22:32;;;;;;;8.82;6.70;;;;;;;;;;5036582;28;20659;-80
2021/05/29 08:24:59;;;;;;;9.23;6.72;;;;;;;;;;5036336;28;20238;-80
2021/05/29 08:27:26;;;;;;;9.00;7.22;;;;;;;;;;5035896;28;20260;-80
2021/05/29 08:29:53;;;;;;;8.70;6.32;;;;;;;;;;5036299;28;20206;-80
2021/05/29 08:32:24;;;;;;;10.13;7.50;;;;;;;;;;5036623;28;20264;-81
2021/05/29 08:34:52;;;;;;;8.70;7.07;;;;;;;;;;5035859;28;20222;-80
2021/05/29 08:37:19;;;;;;;9.35;8.38;;;;;;;;;;5035705;28;20230;-82
2021/05/29 08:39:46;;;;;;;8.52;7.10;;;;;;;;;;5036407;28;20216;-82
2021/05/29 08:42:12;;;;;;;7.97;7.18;;;;;;;;;;5036166;28;20296;-81
2021/05/29 08:44:39;;;;;;;10.07;9.05;;;;;;;;;;5035917;28;20579;-82
2021/05/29 08:47:09;;;;;;;8.95;8.05;;;;;;;;;;5036865;28;20252;-81
2021/05/29 08:49:38;;;;;;;10.18;7.60;;;;;;;;;;5036351;28;20229;-82
2021/05/29 08:52:08;;;;;;;9.23;8.05;;;;;;;;;;5036243;28;20232;-81
2021/05/29 08:54:35;;;;;;;8.73;7.82;;;;;;;;;;5036395;28;20529;-81
2021/05/29 08:57:02;;;;;;;9.75;8.10;;;;;;;;;;5035983;28;20244;-82
2021/05/29 08:59:29;;;;;;;10.45;8.57;;;;;;;;;;5035837;28;20708;-82
2021/05/29 09:01:58;;;;;;;12.98;9.23;;;;;;;;;;5036250;28;20205;-82
2021/05/29 09:04:25;;;;;;;10.02;9.02;;;;;;;;;;5034396;28;20226;-82
2021/05/29 09:06:52;;;;;;;14.27;8.50;;;;;;;;;;5035912;28;20730;-81
2021/05/29 09:09:20;;;;;;;8.75;7.85;;;;;;;;;;5036922;28;20207;-83
2021/05/29 09:12:27;;;;;;;8.70;7.80;;;;;;;;;;5035882;28;20228;-81
2021/05/29 09:15:22;;;;;;;11.35;9.20;;;;;;;;;;5034478;28;20218;-82
2021/05/29 09:17:49;;;;;;;8.95;7.75;;;;;;;;;;5034440;28;20210;-82
2021/05/29 09:20:58;;;;;;;9.60;7.88;;;;;;;;;;5036213;28;20207;-82
2021/05/29 09:23:25;;;;;;;9.13;7.95;;;;;;;;;;5033985;28;20202;-83
2021/05/29 09:25:56;;;;;;;10.98;8.15;;;;;;;;;;5033712;28;20275;-84
2021/05/29 09:28:38;;;;;;;9.95;7.97;;;;;;;;;;5034233;28;20202;-82
2021/05/29 09:31:51;;;;;;;10.38;8.18;;;;;;;;;;5034205;28;20216;-82
2021/05/29 09:34:56;;;;;;;8.20;7.03;;;;;;;;;;5033803;28;20306;-83
2021/05/29 09:37:26;;;;;;;8.63;6.95;;;;;;;;;;5034050;28;20240;-82
2021/05/29 09:39:55;;;;;;;9.27;6.90;;;;;;;;;;5036151;28;20202;-83
2021/05/29 09:42:31;;;;;;;8.70;7.80;;;;;;;;;;5034870;28;20634;-81
2021/05/29 09:44:59;;;;;;;8.00;7.07;;;;;;;;;;5035644;28;20261;-81
2021/05/29 09:47:27;;;;;;;9.15;8.23;;;;;;;;;;5035671;28;20202;-82
2021/05/29 09:49:56;;;;;;;8.43;6.93;;;;;;;;;;5035635;28;20213;-82
2021/05/29 09:52:26;;;;;;;8.02;7.22;;;;;;;;;;5036029;28;20213;-82
2021/05/29 09:54:53;;;;;;;7.97;6.45;;;;;;;;;;5035464;28;20229;-82
2021/05/29 09:57:20;;;;;;;7.63;6.63;;;;;;;;;;5035009;28;20206;-82
2021/05/29 09:59:57;;;;;;;10.77;7.80;;;;;;;;;;5035579;28;20209;-82
2021/05/29 10:02:24;;;;;;;7.63;6.60;;;;;;;;;;5035026;28;20300;-82
2021/05/29 10:04:55;;;;;;;8.00;7.20;;;;;;;;;;5035060;28;20225;-82
2021/05/29 10:07:24;;;;;;;7.40;6.68;;;;;;;;;;5034825;28;20359;-83
2021/05/29 10:09:52;;;;;;;8.13;6.95;;;;;;;;;;5034694;28;20207;-82
2021/05/29 10:12:19;;;;;;;7.60;6.72;;;;;;;;;;5035420;28;20766;-83
2021/05/29 10:14:46;;;;;;;7.93;5.55;;;;;;;;;;5034852;28;20226;-82
2021/05/29 10:17:15;;;;;;;8.50;7.40;;;;;;;;;;5034282;28;20253;-82
2021/05/29 10:19:45;;;;;;;7.05;6.28;;;;;;;;;;5033339;28;20241;-82
2021/05/29 10:22:13;;;;;;;7.65;6.85;;;;;;;;;;5033723;28;20208;-82
2021/05/29 10:24:41;;;;;;;6.97;6.00;;;;;;;;;;5033138;28;20222;-82
2021/05/29 10:27:12;;;;;;;8.43;6.50;;;;;;;;;;5033318;28;20206;-82
2021/05/29 10:29:39;;;;;;;7.22;5.75;;;;;;;;;;5033449;28;20194;-82
2021/05/29 10:32:16;;;;;;;6.30;5.70;;;;;;;;;;5033156;28;20229;-82
2021/05/29 10:35:05;;;;;;;7.00;5.35;;;;;;;;;;5033833;28;20222;-82
2021/05/29 10:37:35;;;;;;;6.88;5.95;;;;;;;;;;5033521;28;20237;-82
2021/05/29 10:40:27;;;;;;;7.40;6.72;;;;;;;;;;5033325;28;20206;-82
2021/05/29 10:43:14;;;;;;;8.32;6.88;;;;;;;;;;5027865;28;20301;-82
2021/05/29 10:46:06;;;;;;;5.75;5.05;;;;;;;;;;5032445;28;20194;-82
2021/05/29 10:48:44;;;;;;;7.50;6.05;;;;;;;;;;5032542;28;20202;-82
2021/05/29 10:51:12;;;;;;;7.68;6.70;;;;;;;;;;5031644;28;20198;-82
2021/05/29 10:53:42;;;;;;;8.00;6.85;;;;;;;;;;5032176;28;20234;-83
2021/05/29 10:56:31;;;;;;;6.82;6.18;;;;;;;;;;5032261;28;20236;-82
2021/05/29 10:59:11;;;;;;;5.97;5.38;;;;;;;;;;5032571;28;20284;-82
2021/05/29 11:02:18;;;;;;;6.72;5.95;;;;;;;;;;5032422;28;20249;-83
2021/05/29 11:04:46;;;;;;;6.65;5.80;;;;;;;;;;5032002;28;20325;-82
2021/05/29 11:07:30;;;;;;;6.07;5.43;;;;;;;;;;5031990;28;20202;-82
2021/05/29 11:09:58;;;;;;;6.07;5.47;;;;;;;;;;5032412;28;20205;-82
2021/05/29 11:12:52;;;;;;;6.55;5.90;;;;;;;;;;5032495;28;20202;-82
2021/05/29 11:15:21;;;;;;;8.40;5.45;;;;;;;;;;5032329;28;20226;-83
2021/05/29 11:18:10;;;;;;;6.03;5.15;;;;;;;;;;5032052;28;20203;-82
2021/05/29 11:21:03;;;;;;;9.70;5.78;;;;;;;;;;5032248;28;20202;-83
2021/05/29 11:23:30;;;;;;;6.60;6.00;;;;;;;;;;5034913;28;20476;-82
2021/05/29 11:25:57;;;;;;;6.78;5.18;;;;;;;;;;5035974;28;20255;-82
2021/05/29 11:28:24;;;;;;;7.25;6.30;;;;;;;;;;5036041;28;20213;-82
2021/05/29 11:30:51;;;;;;;6.63;5.80;;;;;;;;;;5036029;28;20203;-82
2021/05/29 11:33:18;;;;;;;7.68;5.93;;;;;;;;;;5034836;28;20222;-82
2021/05/29 11:35:47;;;;;;;6.13;4.88;;;;;;;;;;5035292;28;20737;-83
2021/05/29 11:38:17;;;;;;;8.18;6.25;;;;;;;;;;4996143;28;20669;-82
2021/05/29 11:40:57;;;;;;;5.60;4.72;;;;;;;;;;4996194;28;20299;-82
2021/05/29 11:43:37;;;;;;;6.57;5.78;;;;;;;;;;4997121;28;20204;-82
2021/05/29 11:46:07;;;;;;;6.72;6.03;;;;;;;;;;4996577;28;20261;-82
2021/05/29 11:48:37;;;;;;;8.20;5.50;;;;;;;;;;4996544;28;20266;-82
2021/05/29 11:51:11;;;;;;;6.03;5.43;;;;;;;;;;4997574;28;20261;-82
2021/05/29 11:53:46;;;;;;;8.07;5.50;;;;;;;;;;4996599;28;20309;-82
2021/05/29 11:56:15;;;;;;;6.10;5.50;;;;;;;;;;4997136;28;20585;-82
2021/05/29 11:58:51;;;;;;;7.70;5.53;;;;;;;;;;4996413;28;20266;-82
2021/05/29 12:01:20;;;;;;;5.55;4.95;;;;;;;;;;4996249;28;20199;-82
2021/05/29 12:03:50;;;;;;;6.55;5.95;;;;;;;;;;4997134;28;20227;-82
2021/05/29 12:06:39;;;;;;;5.78;4.88;;;;;;;;;;4995816;28;20565;-82
2021/05/29 12:09:11;;;;;;;4.90;4.43;;;;;;;;;;4996340;28;20230;-82
2021/05/29 12:11:39;;;;;;;5.20;4.70;;;;;;;;;;4995656;28;20662;-82
2021/05/29 12:14:11;;;;;;;7.13;4.95;;;;;;;;;;4995641;28;20232;-82
2021/05/29 12:16:41;;;;;;;7.00;6.30;;;;;;;;;;4996485;28;20250;-82
2021/05/29 12:19:24;;;;;;;7.07;4.85;;;;;;;;;;4996196;28;20589;-82
2021/05/29 12:21:53;;;;;;;6.20;5.60;;;;;;;;;;4996126;28;20557;-81
2021/05/29 12:24:21;;;;;;;5.38;4.95;;;;;;;;;;4996193;28;20216;-82
2021/05/29 12:26:52;;;;;;;7.30;5.78;;;;;;;;;;4996184;28;20195;-82
2021/05/29 12:29:20;;;;;;;7.03;5.38;;;;;;;;;;4995541;28;20214;-82
2021/05/29 12:31:54;;;;;;;6.88;4.32;;;;;;;;;;4996259;28;20199;-82
2021/05/29 12:34:23;;;;;;;6.72;6.07;;;;;;;;;;4995546;28;20235;-81
2021/05/29 12:37:09;;;;;;;6.10;4.97;;;;;;;;;;5013205;28;20234;-82
2021/05/29 12:39:51;;;;;;;5.80;5.25;;;;;;;;;;5037129;28;20591;-81
2021/05/29 12:42:31;;;;;;;5.32;4.82;;;;;;;;;;5036268;28;20864;-81
2021/05/29 12:45:01;;;;;;;5.70;4.97;;;;;;;;;;5034701;28;20304;-81
2021/05/29 12:47:32;;;;;;;5.40;4.88;;;;;;;;;;5034696;28;20183;-81
2021/05/29 12:50:13;;;;;;;4.45;4.05;;;;;;;;;;5034542;28;20217;-81
2021/05/29 12:52:40;;;;;;;7.05;5.00;;;;;;;;;;5034826;28;20186;-81
2021/05/29 12:55:18;;;;;;;4.35;4.05;;;;;;;;;;5036241;28;20230;-82
2021/05/29 12:57:45;;;;;;;5.90;4.00;;;;;;;;;;5035983;28;20194;-81
2021/05/29 13:00:20;;;;;;;4.28;3.88;;;;;;;;;;5035800;28;20190;-82
2021/05/29 13:08:46;;;;;;;6.93;5.07;;;;;;;;;;5035448;28;20232;-82
2021/05/29 13:11:29;;;;;;;4.82;4.38;;;;;;;;;;5035830;28;20260;-81
2021/05/29 13:14:00;;;;;;;5.20;4.60;;;;;;;;;;5035625;28;20226;-83
2021/05/29 13:16:27;;;;;;;4.20;3.90;;;;;;;;;;5035171;28;20217;-82
2021/05/29 13:19:03;;;;;;;4.88;3.95;;;;;;;;;;5035465;28;20182;-82
2021/05/29 13:21:32;;;;;;;4.68;4.28;;;;;;;;;;5035468;28;20640;-83
2021/05/29 13:24:00;;;;;;;4.47;3.80;;;;;;;;;;5035271;28;20588;-82
2021/05/29 13:26:29;;;;;;;4.35;3.95;;;;;;;;;;5034890;28;20804;-83
2021/05/29 13:28:57;;;;;;;4.13;3.83;;;;;;;;;;5034631;28;20205;-82
2021/05/29 13:31:24;;;;;;;4.13;3.83;;;;;;;;;;5036098;28;20197;-82
2021/05/29 13:33:58;;;;;;;3.88;3.58;;;;;;;;;;5036617;28;20229;-81
2021/05/29 13:36:25;;;;;;;4.85;3.97;;;;;;;;;;5035042;28;20291;-83
2021/05/29 13:38:53;;;;;;;3.60;3.30;;;;;;;;;;5035071;28;20654;-82
2021/05/29 13:41:20;;;;;;;3.50;3.20;;;;;;;;;;5034396;28;20252;-82
2021/05/29 13:43:48;;;;;;;3.45;3.15;;;;;;;;;;5034950;28;20222;-82
2021/05/29 13:46:15;;;;;;;4.05;3.70;;;;;;;;;;5034304;28;20182;-82
2021/05/29 13:48:42;;;;;;;4.10;3.75;;;;;;;;;;5034938;28;20243;-82
2021/05/29 13:51:08;;;;;;;4.07;3.70;;;;;;;;;;5034726;28;20715;-83
2021/05/29 13:53:37;;;;;;;3.83;3.53;;;;;;;;;;5036773;28;20236;-83
2021/05/29 13:56:05;;;;;;;3.67;3.38;;;;;;;;;;5036867;28;20248;-82
2021/05/29 13:58:32;;;;;;;4.60;3.50;;;;;;;;;;5036022;28;20451;-82
2021/05/29 14:01:02;;;;;;;4.95;4.55;;;;;;;;;;5033725;28;20210;-82
2021/05/29 14:03:29;;;;;;;4.10;3.35;;;;;;;;;;5033989;28;20241;-81
2021/05/29 14:05:57;;;;;;;3.22;3.03;;;;;;;;;;5033984;28;20240;-82
2021/05/29 14:08:24;;;;;;;4.07;3.67;;;;;;;;;;5033319;28;20186;-82
2021/05/29 14:10:51;;;;;;;4.10;3.72;;;;;;;;;;5033457;28;20190;-82
2021/05/29 14:13:20;;;;;;;3.80;3.50;;;;;;;;;;5033608;28;20606;-82
2021/05/29 14:15:47;;;;;;;3.13;2.83;;;;;;;;;;5034491;28;20267;-82
2021/05/29 14:18:14;;;;;;;3.70;3.40;;;;;;;;;;5034640;28;20260;-82
2021/05/29 14:20:41;;;;;;;4.10;3.15;;;;;;;;;;5034891;28;20710;-83
2021/05/29 14:23:08;;;;;;;3.67;3.28;;;;;;;;;;5034989;28;20210;-82
2021/05/29 14:25:35;;;;;;;4.57;3.45;;;;;;;;;;5035139;28;20584;-82
2021/05/29 14:28:02;;;;;;;3.58;3.28;;;;;;;;;;5034272;28;20252;-83
2021/05/29 14:30:29;;;;;;;4.05;3.65;;;;;;;;;;5034547;28;20183;-82
2021/05/29 14:32:56;;;;;;;4.93;4.53;;;;;;;;;;5034328;28;20191;-83
2021/05/29 14:35:25;;;;;;;4.00;3.70;;;;;;;;;;5034259;28;20576;-82
2021/05/29 14:37:52;;;;;;;4.03;3.67;;;;;;;;;;5034675;28;20229;-83
2021/05/29 14:40:19;;;;;;;4.85;4.22;;;;;;;;;;5033987;28;20247;-83
2021/05/29 14:42:47;;;;;;;4.18;3.70;;;;;;;;;;5035263;28;20543;-82
2021/05/29 14:45:16;;;;;;;4.75;4.35;;;;;;;;;;5034295;28;20229;-82
2021/05/29 14:47:43;;;;;;;4.07;3.78;;;;;;;;;;5035010;28;20191;-82
2021/05/29 14:50:11;;;;;;;3.55;3.25;;;;;;;;;;5035684;28;20193;-83
2021/05/29 14:52:40;;;;;;;3.88;3.58;;;;;;;;;;5034368;28;20253;-83
2021/05/29 14:55:08;;;;;;;5.35;4.85;;;;;;;;;;5033914;28;20248;-82
2021/05/29 14:57:35;;;;;;;4.43;4.13;;;;;;;;;;5037215;28;20205;-82
2021/05/29 15:00:02;;;;;;;5.05;4.55;;;;;;;;;;5037270;28;20201;-83
2021/05/29 15:02:29;;;;;;;5.10;4.55;;;;;;;;;;5038731;28;20200;-83
2021/05/29 15:04:58;;;;;;;4.43;4.03;;;;;;;;;;5037345;28;20313;-83
2021/05/29 15:07:25;;;;;;;4.50;4.10;;;;;;;;;;5036449;28;20194;-82
2021/05/29 15:09:53;;;;;;;4.72;4.32;;;;;;;;;;5036763;28;20194;-83
2021/05/29 15:12:22;;;;;;;5.05;4.55;;;;;;;;;;5036381;28;20183;-83
2021/05/29 15:14:51;;;;;;;4.88;4.47;;;;;;;;;;5036004;28;20232;-82
2021/05/29 15:17:18;;;;;;;5.00;4.15;;;;;;;;;;5045670;28;20189;-82
2021/05/29 15:19:45;;;;;;;5.00;4.50;;;;;;;;;;5057611;28;20194;-82
2021/05/29 15:22:16;;;;;;;5.68;5.18;;;;;;;;;;5056963;28;20290;-82
2021/05/29 15:24:43;;;;;;;5.63;5.13;;;;;;;;;;5055706;28;20813;-83
2021/05/29 15:27:11;;;;;;;6.35;5.47;;;;;;;;;;5056786;28;20568;-83
2021/05/29 15:29:40;;;;;;;5.00;4.55;;;;;;;;;;5056981;28;20260;-82
2021/05/29 15:32:13;;;;;;;4.78;4.32;;;;;;;;;;5055096;28;20689;-82
2021/05/29 15:34:40;;;;;;;5.50;5.05;;;;;;;;;;5057210;28;20232;-83
2021/05/29 15:37:08;;;;;;;6.30;4.88;;;;;;;;;;5057433;28;20781;-83
2021/05/29 15:39:35;;;;;;;5.40;4.60;;;;;;;;;;5059092;28;20684;-83
2021/05/29 15:42:02;;;;;;;5.80;5.28;;;;;;;;;;5059289;28;20208;-83
2021/05/29 15:44:30;;;;;;;5.60;5.10;;;;;;;;;;5060707;28;20225;-83
2021/05/29 15:46:57;;;;;;;5.60;4.75;;;;;;;;;;5055559;28;20229;-82
2021/05/29 15:49:24;;;;;;;6.15;5.55;;;;;;;;;;5057551;28;20201;-83
2021/05/29 15:51:51;;;;;;;5.63;5.07;;;;;;;;;;5056103;28;20266;-83
2021/05/29 15:54:18;;;;;;;5.53;5.07;;;;;;;;;;5062039;28;20222;-84
2021/05/29 15:56:45;;;;;;;4.85;4.35;;;;;;;;;;5056695;28;20201;-83
2021/05/29 15:59:13;;;;;;;5.68;5.10;;;;;;;;;;5057226;28;20276;-83
2021/05/29 16:01:41;;;;;;;5.60;4.97;;;;;;;;;;5057018;28;20206;-82
2021/05/29 16:04:08;;;;;;;5.82;5.32;;;;;;;;;;5056987;28;20704;-83
2021/05/29 16:06:35;;;;;;;7.85;6.07;;;;;;;;;;5057480;28;20208;-82
2021/05/29 16:09:03;;;;;;;6.13;5.40;;;;;;;;;;5056005;28;20194;-82
2021/05/29 16:11:30;;;;;;;6.15;5.55;;;;;;;;;;5055855;28;20627;-82
2021/05/29 16:13:57;;;;;;;6.07;5.18;;;;;;;;;;5055912;28;20275;-83
2021/05/29 16:16:24;;;;;;;6.28;5.68;;;;;;;;;;5056753;28;20193;-83
2021/05/29 16:18:52;;;;;;;5.47;4.97;;;;;;;;;;5056873;28;20208;-82
2021/05/29 16:21:20;;;;;;;6.80;5.13;;;;;;;;;;5056608;28;20205;-82
2021/05/29 16:23:47;;;;;;;6.78;4.65;;;;;;;;;;5055945;28;20222;-83
2021/05/29 16:26:14;;;;;;;6.55;5.10;;;;;;;;;;5056448;28;20218;-82
2021/05/29 16:28:41;;;;;;;5.15;4.70;;;;;;;;;;5055684;28;20198;-82
2021/05/29 16:31:11;;;;;;;5.05;4.18;;;;;;;;;;5056331;28;20210;-83
2021/05/29 16:33:40;;;;;;;5.60;5.10;;;;;;;;;;5055614;28;20217;-82
2021/05/29 16:36:12;;;;;;;5.20;4.70;;;;;;;;;;5056031;28;20246;-82
2021/05/29 16:38:41;;;;;;;4.45;4.05;;;;;;;;;;5056249;28;20533;-82
2021/05/29 16:41:09;;;;;;;4.32;3.88;;;;;;;;;;5056234;28;20202;-82
2021/05/29 16:43:40;;;;;;;5.95;5.18;;;;;;;;;;5056095;28;20225;-82
2021/05/29 16:46:07;;;;;;;4.90;4.50;;;;;;;;;;5056291;28;20206;-82
2021/05/29 16:48:34;;;;;;;6.50;3.90;;;;;;;;;;5055935;28;20201;-83
2021/05/29 16:51:03;;;;;;;5.18;4.25;;;;;;;;;;5055901;28;20206;-82
2021/05/29 16:53:33;;;;;;;5.53;4.45;;;;;;;;;;5056115;28;20213;-83
2021/05/29 16:56:03;;;;;;;5.80;4.97;;;;;;;;;;5056161;28;20628;-83
2021/05/29 16:58:31;;;;;;;5.72;5.28;;;;;;;;;;5056356;28;20190;-82
2021/05/29 17:00:59;;;;;;;7.28;5.85;;;;;;;;;;5055545;28;20182;-82
2021/05/29 17:03:26;;;;;;;6.82;5.38;;;;;;;;;;5055167;28;20186;-82
2021/05/29 17:05:53;;;;;;;5.40;4.75;;;;;;;;;;5055052;28;20225;-83
2021/05/29 17:08:21;;;;;;;7.47;5.53;;;;;;;;;;5055453;28;20269;-82
2021/05/29 17:10:49;;;;;;;6.00;5.13;;;;;;;;;;5055642;28;20186;-83
2021/05/29 17:13:17;;;;;;;6.30;5.68;;;;;;;;;;5035261;28;20273;-82
2021/05/29 17:15:44;;;;;;;6.68;5.32;;;;;;;;;;5034288;28;20182;-82
2021/05/29 17:18:11;;;;;;;5.40;4.90;;;;;;;;;;5034428;28;20179;-82
2021/05/29 17:20:38;;;;;;;7.10;4.75;;;;;;;;;;5035197;28;20183;-82
2021/05/29 17:23:05;;;;;;;6.88;4.93;;;;;;;;;;5035132;28;20210;-83
2021/05/29 17:25:32;;;;;;;6.60;5.40;;;;;;;;;;5035083;28;20230;-82
2021/05/29 17:28:01;;;;;;;6.78;6.07;;;;;;;;;;5035044;28;20190;-82
2021/05/29 17:30:31;;;;;;;6.75;5.80;;;;;;;;;;5033679;28;20265;-82
2021/05/29 17:32:59;;;;;;;7.13;6.20;;;;;;;;;;5033556;28;20183;-82
2021/05/29 17:35:27;;;;;;;6.80;5.70;;;;;;;;;;5034440;28;20226;-82
2021/05/29 17:37:54;;;;;;;7.72;6.95;;;;;;;;;;5033597;28;20630;-82
2021/05/29 17:40:21;;;;;;;7.60;5.30;;;;;;;;;;5034133;28;20228;-81
2021/05/29 17:42:48;;;;;;;6.55;5.95;;;;;;;;;;5033874;28;20187;-82
2021/05/29 17:45:17;;;;;;;9.02;6.43;;;;;;;;;;5033796;28;20639;-83
2021/05/29 17:47:44;;;;;;;7.63;6.88;;;;;;;;;;5035165;28;20232;-82
2021/05/29 17:50:12;;;;;;;6.43;5.88;;;;;;;;;;5034507;28;20190;-83
2021/05/29 17:52:39;;;;;;;6.53;5.63;;;;;;;;;;5035285;28;20273;-83
2021/05/29 17:55:07;;;;;;;6.50;5.90;;;;;;;;;;5034659;28;20230;-82
2021/05/29 17:57:42;;;;;;;7.40;5.80;;;;;;;;;;5034124;28;20217;-83
2021/05/29 18:00:16;;;;;;;7.82;6.30;;;;;;;;;;5034813;28;20282;-82
2021/05/29 18:02:46;;;;;;;7.18;6.47;;;;;;;;;;5034167;28;20209;-82
2021/05/29 18:05:14;;;;;;;6.93;6.13;;;;;;;;;;5035136;28;20230;-82
2021/05/29 18:07:42;;;;;;;6.40;5.78;;;;;;;;;;5033334;28;20179;-82
2021/05/29 18:10:11;;;;;;;6.10;5.50;;;;;;;;;;5033353;28;20205;-82
2021/05/29 18:12:40;;;;;;;8.00;5.60;;;;;;;;;;5033020;28;20194;-82
2021/05/29 18:15:08;;;;;;;6.38;5.78;;;;;;;;;;5033439;28;20222;-82
2021/05/29 18:17:35;;;;;;;6.57;5.97;;;;;;;;;;5033809;28;20189;-82